createdAt,value
2023-05-19T00:00:37.383Z,9.43
2023-05-19T00:01:43.775Z,15.43
2023-05-19T00:02:46.415Z,10.15
2023-05-19T00:03:52.599Z,8.80
2023-05-19T00:04:55.109Z,10.38
2023-05-19T00:05:58.986Z,18.33
2023-05-19T00:07:03.433Z,11.35
2023-05-19T00:08:06.022Z,12.38
2023-05-19T00:09:09.978Z,7.93
2023-05-19T00:10:12.668Z,7.97
2023-05-19T00:11:15.119Z,8.88
2023-05-19T00:12:17.579Z,10.23
2023-05-19T00:13:20.310Z,8.68
2023-05-19T00:14:22.536Z,8.35
2023-05-19T00:15:25.003Z,13.07
2023-05-19T00:16:29.359Z,17.60
2023-05-19T00:17:34.350Z,13.88
2023-05-19T00:18:36.566Z,10.43
2023-05-19T00:19:39.470Z,8.63
2023-05-19T00:20:41.623Z,9.55
2023-05-19T00:21:45.036Z,11.88
2023-05-19T00:22:47.207Z,13.25
2023-05-19T00:23:49.558Z,16.67
2023-05-19T00:24:51.789Z,8.43
2023-05-19T00:25:54.086Z,13.15
2023-05-19T00:26:56.277Z,12.00
2023-05-19T00:27:59.263Z,8.77
2023-05-19T00:29:01.678Z,9.90
2023-05-19T00:30:04.393Z,10.73
2023-05-19T00:31:06.869Z,15.07
2023-05-19T00:32:09.253Z,11.65
2023-05-19T00:33:11.626Z,20.48
2023-05-19T00:34:13.885Z,8.55
2023-05-19T00:35:16.515Z,12.10
2023-05-19T00:36:18.769Z,14.57
2023-05-19T00:37:21.070Z,8.90
2023-05-19T00:38:23.289Z,7.65
2023-05-19T00:39:25.451Z,8.70
2023-05-19T00:40:31.016Z,9.25
2023-05-19T00:41:33.444Z,12.77
2023-05-19T00:42:35.995Z,8.10
2023-05-19T00:43:38.199Z,12.43
2023-05-19T00:44:41.695Z,12.65
2023-05-19T00:45:44.490Z,8.95
2023-05-19T00:46:46.814Z,11.20
2023-05-19T00:47:49.626Z,12.98
2023-05-19T00:48:51.841Z,8.57
2023-05-19T00:49:54.106Z,12.38
2023-05-19T00:51:02.389Z,13.68
2023-05-19T00:52:06.661Z,12.70
2023-05-19T00:53:09.316Z,14.25
2023-05-19T00:54:11.516Z,13.55
2023-05-19T00:55:14.627Z,10.70
2023-05-19T00:56:18.333Z,12.18
2023-05-19T00:57:21.044Z,7.15
2023-05-19T00:58:25.681Z,10.70
2023-05-19T00:59:27.981Z,12.93
2023-05-19T01:00:30.965Z,11.85
2023-05-19T01:01:33.560Z,15.13
2023-05-19T01:02:38.229Z,13.88
2023-05-19T01:03:42.903Z,9.20
2023-05-19T01:04:45.369Z,13.20
2023-05-19T01:05:53.634Z,18.10
2023-05-19T01:06:56.678Z,9.13
2023-05-19T01:07:58.993Z,11.27
2023-05-19T01:09:01.237Z,12.40
2023-05-19T01:10:04.292Z,14.90
2023-05-19T01:11:07.712Z,12.63
2023-05-19T01:12:10.220Z,10.05
2023-05-19T01:13:12.618Z,9.52
2023-05-19T01:14:15.408Z,9.75
2023-05-19T01:15:18.051Z,10.73
2023-05-19T01:16:32.276Z,8.90
2023-05-19T01:17:45.557Z,10.50
2023-05-19T01:19:05.863Z,12.85
2023-05-19T01:20:18.407Z,9.82
2023-05-19T01:21:51.874Z,10.20
2023-05-19T01:23:11.049Z,13.63
2023-05-19T01:24:32.345Z,12.93
2023-05-19T01:25:46.710Z,9.80
2023-05-19T01:27:39.945Z,10.68
2023-05-19T01:29:04.238Z,12.70
2023-05-19T01:30:23.330Z,10.05
2023-05-19T01:31:26.618Z,14.93
2023-05-19T01:32:31.383Z,10.10
2023-05-19T01:33:34.565Z,10.43
2023-05-19T01:34:42.612Z,10.77
2023-05-19T01:35:45.872Z,14.90
2023-05-19T01:36:49.898Z,9.73
2023-05-19T01:37:56.394Z,11.35
2023-05-19T01:38:59.878Z,15.05
2023-05-19T01:40:02.534Z,11.75
2023-05-19T01:41:06.981Z,12.35
2023-05-19T01:42:11.747Z,14.50
2023-05-19T01:43:18.721Z,18.45
2023-05-19T01:44:22.394Z,12.05
2023-05-19T01:45:27.710Z,16.63
2023-05-19T01:46:29.998Z,12.35
2023-05-19T01:47:35.203Z,13.15
2023-05-19T01:48:38.233Z,9.70
2023-05-19T01:49:40.454Z,12.95
2023-05-19T01:50:42.811Z,12.32
2023-05-19T01:51:45.307Z,10.70
2023-05-19T01:52:47.585Z,12.95
2023-05-19T01:53:49.826Z,12.18
2023-05-19T01:54:52.022Z,13.57
2023-05-19T01:55:56.488Z,20.58
2023-05-19T01:57:12.761Z,10.23
2023-05-19T01:58:21.295Z,18.60
2023-05-19T01:59:44.627Z,15.88
2023-05-19T02:00:49.826Z,13.85
2023-05-19T02:01:54.373Z,15.73
2023-05-19T02:03:12.770Z,18.95
2023-05-19T02:04:29.228Z,10.90
2023-05-19T02:05:59.194Z,15.23
2023-05-19T02:07:35.882Z,13.75
2023-05-19T02:08:47.687Z,21.65
2023-05-19T02:10:05.394Z,15.20
2023-05-19T02:11:27.468Z,11.68
2023-05-19T02:12:34.472Z,16.30
2023-05-19T02:13:42.113Z,12.43
2023-05-19T02:14:59.830Z,14.18
2023-05-19T02:16:05.336Z,17.15
2023-05-19T02:17:09.109Z,17.10
2023-05-19T02:18:12.246Z,18.73
2023-05-19T02:19:25.627Z,23.00
2023-05-19T02:20:31.591Z,18.85
2023-05-19T02:21:33.951Z,17.20
2023-05-19T02:22:36.516Z,19.17
2023-05-19T02:23:42.008Z,19.77
2023-05-19T02:24:46.487Z,17.42
2023-05-19T02:25:48.924Z,14.65
2023-05-19T02:26:52.497Z,16.15
2023-05-19T02:27:55.230Z,12.48
2023-05-19T02:28:57.391Z,14.43
2023-05-19T02:30:00.181Z,13.43
2023-05-19T02:31:03.449Z,15.15
2023-05-19T02:32:06.529Z,12.32
2023-05-19T02:33:08.777Z,13.10
2023-05-19T02:34:11.272Z,14.00
2023-05-19T02:35:14.210Z,12.32
2023-05-19T02:36:16.457Z,17.80
2023-05-19T02:37:18.691Z,11.43
2023-05-19T02:38:21.435Z,13.65
2023-05-19T02:39:23.677Z,9.75
2023-05-19T02:40:25.966Z,14.43
2023-05-19T02:41:28.623Z,14.48
2023-05-19T02:42:31.370Z,14.52
2023-05-19T02:43:33.557Z,13.02
2023-05-19T02:44:36.123Z,10.38
2023-05-19T02:45:38.312Z,20.27
2023-05-19T02:46:40.606Z,16.23
2023-05-19T02:47:43.180Z,13.15
2023-05-19T02:48:45.477Z,16.48
2023-05-19T02:49:47.696Z,15.73
2023-05-19T02:50:51.008Z,14.52
2023-05-19T02:51:53.319Z,13.25
2023-05-19T02:52:55.527Z,12.95
2023-05-19T02:53:57.810Z,20.45
2023-05-19T02:55:00.192Z,14.90
2023-05-19T02:56:02.420Z,14.13
2023-05-19T02:57:04.890Z,22.42
2023-05-19T02:58:07.439Z,16.23
2023-05-19T02:59:09.669Z,17.95
2023-05-19T03:00:12.622Z,13.15
2023-05-19T03:01:15.190Z,14.18
2023-05-19T03:02:17.442Z,16.17
2023-05-19T03:03:19.810Z,16.15
2023-05-19T03:04:22.467Z,19.60
2023-05-19T03:05:24.677Z,14.05
2023-05-19T03:06:26.879Z,16.92
2023-05-19T03:07:29.195Z,15.48
2023-05-19T03:08:31.487Z,18.67
2023-05-19T03:09:33.688Z,21.02
2023-05-19T03:10:36.343Z,17.80
2023-05-19T03:11:38.545Z,19.02
2023-05-19T03:12:40.728Z,14.02
2023-05-19T03:13:42.959Z,19.63
2023-05-19T03:14:45.116Z,17.88
2023-05-19T03:15:47.532Z,20.33
2023-05-19T03:16:49.903Z,15.95
2023-05-19T03:17:52.240Z,16.17
2023-05-19T03:18:55.569Z,12.98
2023-05-19T03:19:57.762Z,17.67
2023-05-19T03:21:00.172Z,12.30
2023-05-19T03:22:02.402Z,14.65
2023-05-19T03:23:04.618Z,18.70
2023-05-19T03:24:07.149Z,14.65
2023-05-19T03:25:10.304Z,12.10
2023-05-19T03:26:12.534Z,21.15
2023-05-19T03:27:14.744Z,15.30
2023-05-19T03:28:17.242Z,15.57
2023-05-19T03:29:19.513Z,14.18
2023-05-19T03:30:22.195Z,13.63
2023-05-19T03:31:47.218Z,14.07
2023-05-19T03:32:52.171Z,13.75
2023-05-19T03:33:54.668Z,16.17
2023-05-19T03:34:57.707Z,12.57
2023-05-19T03:36:00.553Z,20.75
2023-05-19T03:37:05.608Z,13.07
2023-05-19T03:38:08.811Z,16.30
2023-05-19T03:39:11.155Z,14.77
2023-05-19T03:40:13.729Z,14.93
2023-05-19T03:41:18.155Z,18.50
2023-05-19T03:42:20.389Z,8.85
2023-05-19T03:43:22.612Z,13.77
2023-05-19T03:44:30.715Z,14.45
2023-05-19T03:45:34.559Z,15.27
2023-05-19T03:46:47.048Z,14.50
2023-05-19T03:47:52.358Z,11.68
2023-05-19T03:49:26.510Z,14.55
2023-05-19T03:50:48.579Z,18.38
2023-05-19T03:51:55.898Z,13.07
2023-05-19T03:53:22.003Z,13.05
2023-05-19T03:54:24.241Z,14.80
2023-05-19T03:55:29.855Z,15.32
2023-05-19T03:56:32.910Z,15.05
2023-05-19T03:57:35.442Z,13.85
2023-05-19T03:58:40.801Z,16.17
2023-05-19T03:59:43.928Z,15.27
2023-05-19T04:00:46.110Z,17.23
2023-05-19T04:01:49.742Z,16.70
2023-05-19T04:02:52.071Z,18.27
2023-05-19T04:03:54.525Z,16.35
2023-05-19T04:04:57.587Z,17.02
2023-05-19T04:05:59.962Z,18.38
2023-05-19T04:07:02.429Z,13.10
2023-05-19T04:08:04.762Z,16.65
2023-05-19T04:09:13.029Z,16.90
2023-05-19T04:10:15.487Z,17.48
2023-05-19T04:11:19.940Z,20.35
2023-05-19T04:12:22.151Z,17.45
2023-05-19T04:13:24.357Z,22.10
2023-05-19T04:14:27.250Z,16.73
2023-05-19T04:15:29.493Z,13.52
2023-05-19T04:16:31.905Z,18.27
2023-05-19T04:17:34.258Z,18.65
2023-05-19T04:18:36.624Z,15.43
2023-05-19T04:19:40.239Z,16.42
2023-05-19T04:20:42.469Z,14.60
2023-05-19T04:21:44.719Z,18.10
2023-05-19T04:22:46.885Z,18.02
2023-05-19T04:23:49.151Z,21.67
2023-05-19T04:24:52.987Z,15.52
2023-05-19T04:25:57.048Z,16.88
2023-05-19T04:27:02.487Z,16.17
2023-05-19T04:28:04.740Z,22.67
2023-05-19T04:29:07.038Z,21.80
2023-05-19T04:30:10.145Z,16.23
2023-05-19T04:31:12.912Z,12.45
2023-05-19T04:32:17.664Z,17.17
2023-05-19T04:33:20.181Z,21.13
2023-05-19T04:34:22.705Z,17.23
2023-05-19T04:35:25.104Z,25.88
2023-05-19T04:36:27.598Z,17.85
2023-05-19T04:37:30.646Z,12.85
2023-05-19T04:38:33.712Z,17.33
2023-05-19T04:39:39.858Z,20.75
2023-05-19T04:40:43.156Z,15.05
2023-05-19T04:41:46.289Z,18.58
2023-05-19T04:42:49.778Z,14.75
2023-05-19T04:43:51.968Z,24.88
2023-05-19T04:44:55.480Z,19.88
2023-05-19T04:45:59.311Z,22.67
2023-05-19T04:47:01.818Z,22.52
2023-05-19T04:48:04.436Z,16.52
2023-05-19T04:49:06.662Z,16.20
2023-05-19T04:50:11.108Z,18.95
2023-05-19T04:51:14.221Z,22.02
2023-05-19T04:52:21.734Z,18.48
2023-05-19T04:53:25.731Z,21.80
2023-05-19T04:54:28.602Z,14.20
2023-05-19T04:55:31.516Z,18.83
2023-05-19T04:56:33.914Z,20.25
2023-05-19T04:57:37.546Z,20.80
2023-05-19T04:58:41.838Z,15.75
2023-05-19T04:59:44.586Z,22.33
2023-05-19T05:00:46.809Z,20.17
2023-05-19T05:01:49.038Z,16.90
2023-05-19T05:02:52.347Z,14.48
2023-05-19T05:03:59.038Z,22.33
2023-05-19T05:05:01.457Z,22.90
2023-05-19T05:06:04.535Z,15.82
2023-05-19T05:07:06.885Z,15.20
2023-05-19T05:08:10.943Z,16.38
2023-05-19T05:09:17.841Z,20.05
2023-05-19T05:10:20.195Z,18.05
2023-05-19T05:11:23.044Z,14.75
2023-05-19T05:12:25.626Z,12.68
2023-05-19T05:13:28.145Z,17.27
2023-05-19T05:14:30.642Z,14.25
2023-05-19T05:15:33.048Z,20.38
2023-05-19T05:16:37.443Z,17.45
2023-05-19T05:17:41.072Z,15.13
2023-05-19T05:18:44.978Z,12.35
2023-05-19T05:19:48.506Z,15.05
2023-05-19T05:20:50.957Z,11.18
2023-05-19T05:21:53.526Z,17.95
2023-05-19T05:22:55.932Z,9.50
2023-05-19T05:23:58.754Z,14.43
2023-05-19T05:25:04.552Z,11.98
2023-05-19T05:26:15.425Z,10.13
2023-05-19T05:27:17.862Z,8.68
2023-05-19T05:28:20.760Z,12.30
2023-05-19T05:29:23.144Z,15.38
2023-05-19T05:30:25.577Z,8.20
2023-05-19T05:31:28.945Z,16.42
2023-05-19T05:32:31.432Z,13.63
2023-05-19T05:33:35.509Z,7.47
2023-05-19T05:34:42.276Z,13.23
2023-05-19T05:35:44.754Z,9.90
2023-05-19T05:36:49.043Z,5.43
2023-05-19T05:37:51.347Z,12.13
2023-05-19T05:38:53.692Z,12.18
2023-05-19T05:39:56.005Z,7.15
2023-05-19T05:40:58.210Z,7.60
2023-05-19T05:42:01.019Z,7.35
2023-05-19T05:43:03.313Z,11.60
2023-05-19T05:44:08.496Z,8.27
2023-05-19T05:45:11.164Z,10.98
2023-05-19T05:46:13.468Z,6.35
2023-05-19T05:47:16.715Z,6.88
2023-05-19T05:48:20.726Z,12.25
2023-05-19T05:49:23.253Z,7.40
2023-05-19T05:50:25.929Z,10.40
2023-05-19T05:51:29.438Z,9.02
2023-05-19T05:52:32.968Z,6.70
2023-05-19T05:53:42.981Z,11.18
2023-05-19T05:54:46.385Z,7.47
2023-05-19T05:55:51.686Z,10.15
2023-05-19T05:56:54.324Z,4.57
2023-05-19T05:57:57.011Z,7.82
2023-05-19T05:58:59.784Z,10.48
2023-05-19T06:00:02.367Z,8.52
2023-05-19T06:01:10.354Z,14.85
2023-05-19T06:02:12.726Z,4.05
2023-05-19T06:03:16.983Z,8.25
2023-05-19T06:04:21.208Z,4.53
2023-05-19T06:05:24.745Z,9.38
2023-05-19T06:06:27.104Z,4.68
2023-05-19T06:07:30.398Z,8.45
2023-05-19T06:08:32.897Z,7.97
2023-05-19T06:09:35.557Z,7.65
2023-05-19T06:10:41.689Z,6.20
2023-05-19T06:11:45.160Z,6.82
2023-05-19T06:12:48.146Z,4.30
2023-05-19T06:13:51.183Z,4.95
2023-05-19T06:15:19.330Z,4.63
2023-05-19T06:16:26.086Z,4.32
2023-05-19T06:17:29.065Z,5.93
2023-05-19T06:18:33.531Z,4.15
2023-05-19T06:19:36.288Z,9.18
2023-05-19T06:20:38.621Z,6.97
2023-05-19T06:21:42.938Z,10.88
2023-05-19T06:22:45.522Z,7.88
2023-05-19T06:23:49.235Z,11.20
2023-05-19T06:24:53.358Z,5.65
2023-05-19T06:25:56.188Z,7.47
2023-05-19T06:26:58.577Z,9.77
2023-05-19T06:28:00.793Z,7.82
2023-05-19T06:29:03.671Z,9.00
2023-05-19T06:30:08.712Z,6.50
2023-05-19T06:31:19.258Z,5.40
2023-05-19T06:32:26.749Z,10.63
2023-05-19T06:33:29.411Z,6.60
2023-05-19T06:34:32.271Z,5.00
2023-05-19T06:35:34.575Z,8.18
2023-05-19T06:36:36.979Z,5.88
2023-05-19T06:37:39.334Z,7.80
2023-05-19T06:38:41.609Z,6.47
2023-05-19T06:39:44.165Z,14.60
2023-05-19T06:40:46.500Z,9.60
2023-05-19T06:41:49.332Z,6.85
2023-05-19T06:43:11.436Z,6.35
2023-05-19T06:44:28.911Z,8.35
2023-05-19T06:45:31.089Z,7.45
2023-05-19T06:46:35.786Z,7.70
2023-05-19T06:47:41.640Z,7.38
2023-05-19T06:48:44.308Z,7.75
2023-05-19T06:49:50.785Z,6.72
2023-05-19T06:50:53.254Z,8.98
2023-05-19T06:51:55.531Z,6.95
2023-05-19T06:52:58.429Z,6.45
2023-05-19T06:54:00.941Z,6.60
2023-05-19T06:55:04.334Z,8.65
2023-05-19T06:56:08.054Z,6.65
2023-05-19T06:57:12.417Z,5.25
2023-05-19T06:58:14.617Z,6.70
2023-05-19T06:59:16.849Z,9.77
2023-05-19T07:00:22.085Z,8.77
2023-05-19T07:01:28.050Z,6.40
2023-05-19T07:02:34.565Z,6.60
2023-05-19T07:03:37.379Z,4.72
2023-05-19T07:04:39.992Z,3.88
2023-05-19T07:05:42.829Z,7.75
2023-05-19T07:06:45.882Z,11.70
2023-05-19T07:07:48.625Z,7.28
2023-05-19T07:08:55.519Z,9.25
2023-05-19T07:09:58.301Z,6.18
2023-05-19T07:11:01.640Z,7.00
2023-05-19T07:12:04.476Z,10.18
2023-05-19T07:13:06.756Z,8.35
2023-05-19T07:14:09.745Z,5.35
2023-05-19T07:15:11.998Z,8.52
2023-05-19T07:16:14.337Z,6.95
2023-05-19T07:17:16.815Z,7.40
2023-05-19T07:18:20.927Z,5.70
2023-05-19T07:19:24.118Z,7.15
2023-05-19T07:20:27.192Z,8.52
2023-05-19T07:21:30.129Z,11.65
2023-05-19T07:22:35.244Z,9.57
2023-05-19T07:23:37.495Z,7.63
2023-05-19T07:24:39.719Z,6.93
2023-05-19T07:25:41.993Z,6.63
2023-05-19T07:26:44.250Z,7.47
2023-05-19T07:27:46.499Z,5.95
2023-05-19T07:28:48.679Z,8.05
2023-05-19T07:29:50.905Z,6.75
2023-05-19T07:30:53.615Z,6.68
2023-05-19T07:31:57.983Z,7.30
2023-05-19T07:33:00.585Z,4.25
2023-05-19T07:34:03.139Z,5.75
2023-05-19T07:35:06.313Z,7.78
2023-05-19T07:36:09.089Z,6.18
2023-05-19T07:37:11.353Z,8.10
2023-05-19T07:38:13.917Z,8.90
2023-05-19T07:39:16.212Z,7.80
2023-05-19T07:40:18.962Z,10.75
2023-05-19T07:41:21.827Z,4.53
2023-05-19T07:42:24.093Z,4.85
2023-05-19T07:43:26.334Z,12.35
2023-05-19T07:44:31.184Z,7.30
2023-05-19T07:45:33.467Z,7.45
2023-05-19T07:46:36.486Z,9.25
2023-05-19T07:47:38.938Z,7.20
2023-05-19T07:48:41.099Z,6.38
2023-05-19T07:49:43.319Z,7.78
2023-05-19T07:50:45.490Z,5.68
2023-05-19T07:51:47.682Z,5.50
2023-05-19T07:52:49.884Z,7.65
2023-05-19T07:53:52.940Z,8.15
2023-05-19T07:54:55.113Z,4.85
2023-05-19T07:55:58.719Z,9.15
2023-05-19T07:57:01.068Z,6.60
2023-05-19T07:58:03.286Z,6.63
2023-05-19T07:59:05.792Z,7.80
2023-05-19T08:00:11.560Z,6.43
2023-05-19T08:01:17.136Z,4.95
2023-05-19T08:02:19.473Z,6.10
2023-05-19T08:03:23.478Z,7.70
2023-05-19T08:04:25.914Z,8.45
2023-05-19T08:05:28.140Z,5.63
2023-05-19T08:06:30.308Z,10.38
2023-05-19T08:07:33.042Z,5.50
2023-05-19T08:08:35.284Z,6.22
2023-05-19T08:09:37.467Z,8.65
2023-05-19T08:10:39.697Z,10.52
2023-05-19T08:11:41.863Z,11.32
2023-05-19T08:12:44.286Z,6.72
2023-05-19T08:13:49.007Z,4.00
2023-05-19T08:14:51.318Z,6.85
2023-05-19T08:15:59.486Z,8.07
2023-05-19T08:17:01.889Z,6.15
2023-05-19T08:18:05.366Z,7.60
2023-05-19T08:19:07.716Z,5.57
2023-05-19T08:20:10.440Z,8.30
2023-05-19T08:21:12.752Z,6.65
2023-05-19T08:22:14.971Z,6.40
2023-05-19T08:23:17.591Z,9.43
2023-05-19T08:24:19.739Z,8.88
2023-05-19T08:25:22.446Z,6.53
2023-05-19T08:26:24.625Z,10.60
2023-05-19T08:27:26.910Z,6.90
2023-05-19T08:28:29.216Z,5.28
2023-05-19T08:29:31.931Z,5.90
2023-05-19T08:30:34.404Z,5.53
2023-05-19T08:31:36.804Z,6.82
2023-05-19T08:32:39.136Z,9.80
2023-05-19T08:33:41.326Z,8.23
2023-05-19T08:34:43.508Z,9.80
2023-05-19T08:35:45.887Z,7.15
2023-05-19T08:36:48.148Z,4.43
2023-05-19T08:37:50.390Z,10.10
2023-05-19T08:38:52.571Z,9.05
2023-05-19T08:39:54.770Z,5.50
2023-05-19T08:40:58.143Z,6.22
2023-05-19T08:42:01.519Z,7.90
2023-05-19T08:43:03.825Z,10.88
2023-05-19T08:44:06.165Z,7.53
2023-05-19T08:45:08.841Z,4.50
2023-05-19T08:46:14.381Z,4.68
2023-05-19T08:47:17.665Z,5.18
2023-05-19T08:48:21.776Z,11.57
2023-05-19T08:49:30.223Z,8.32
2023-05-19T08:50:38.548Z,7.93
2023-05-19T08:51:49.437Z,5.30
2023-05-19T08:53:33.137Z,4.47
2023-05-19T08:54:46.009Z,6.57
2023-05-19T08:56:00.966Z,4.93
2023-05-19T08:57:05.297Z,9.13
2023-05-19T08:58:08.676Z,6.63
2023-05-19T08:59:13.224Z,5.60
2023-05-19T09:00:16.951Z,6.75
2023-05-19T09:01:22.078Z,6.47
2023-05-19T09:02:24.670Z,5.57
2023-05-19T09:03:29.096Z,6.80
2023-05-19T09:04:32.303Z,5.07
2023-05-19T09:05:35.122Z,6.88
2023-05-19T09:06:41.013Z,5.28
2023-05-19T09:07:44.094Z,5.53
2023-05-19T09:08:47.127Z,7.45
2023-05-19T09:09:49.442Z,5.35
2023-05-19T09:10:51.685Z,9.07
2023-05-19T09:11:53.943Z,7.35
2023-05-19T09:12:56.379Z,7.45
2023-05-19T09:13:58.561Z,5.55
2023-05-19T09:15:01.174Z,8.77
2023-05-19T09:16:04.067Z,9.35
2023-05-19T09:17:07.042Z,5.90
2023-05-19T09:18:11.296Z,7.57
2023-05-19T09:19:16.028Z,4.80
2023-05-19T09:20:18.244Z,8.27
2023-05-19T09:21:20.577Z,8.57
2023-05-19T09:22:25.463Z,12.77
2023-05-19T09:23:33.445Z,6.85
2023-05-19T09:24:36.050Z,10.10
2023-05-19T09:25:47.100Z,10.45
2023-05-19T09:26:49.270Z,11.48
2023-05-19T09:27:51.583Z,5.80
2023-05-19T09:28:58.236Z,5.90
2023-05-19T09:30:09.250Z,8.30
2023-05-19T09:31:11.698Z,4.22
2023-05-19T09:32:25.031Z,8.65
2023-05-19T09:33:28.670Z,5.95
2023-05-19T09:34:31.160Z,5.63
2023-05-19T09:35:34.843Z,9.25
2023-05-19T09:36:39.940Z,4.95
2023-05-19T09:37:46.288Z,9.45
2023-05-19T09:38:49.214Z,4.82
2023-05-19T09:39:52.936Z,5.13
2023-05-19T09:40:59.737Z,6.40
2023-05-19T09:42:04.642Z,7.15
2023-05-19T09:43:08.501Z,6.30
2023-05-19T09:44:22.194Z,5.35
2023-05-19T09:45:27.247Z,6.32
2023-05-19T09:46:30.187Z,3.38
2023-05-19T09:47:38.154Z,5.15
2023-05-19T09:48:40.580Z,7.57
2023-05-19T09:49:47.281Z,5.55
2023-05-19T09:50:51.678Z,5.70
2023-05-19T09:51:58.003Z,5.25
2023-05-19T09:53:00.853Z,5.32
2023-05-19T09:54:04.531Z,5.45
2023-05-19T09:55:10.380Z,8.15
2023-05-19T09:56:15.073Z,4.88
2023-05-19T09:57:17.777Z,8.43
2023-05-19T09:58:20.516Z,5.50
2023-05-19T09:59:25.366Z,6.97
2023-05-19T10:00:28.071Z,5.40
2023-05-19T10:01:33.715Z,5.00
2023-05-19T10:02:36.659Z,3.88
2023-05-19T10:03:39.263Z,4.97
2023-05-19T10:04:42.475Z,7.35
2023-05-19T10:05:45.205Z,7.18
2023-05-19T10:06:53.481Z,7.63
2023-05-19T10:07:55.834Z,4.57
2023-05-19T10:08:59.197Z,6.72
2023-05-19T10:10:01.947Z,8.13
2023-05-19T10:11:05.478Z,5.70
2023-05-19T10:12:09.375Z,3.47
2023-05-19T10:13:12.514Z,12.13
2023-05-19T10:14:15.770Z,3.97
2023-05-19T10:15:22.075Z,5.15
2023-05-19T10:16:27.793Z,4.55
2023-05-19T10:17:30.883Z,3.83
2023-05-19T10:18:33.616Z,6.70
2023-05-19T10:19:37.191Z,6.10
2023-05-19T10:20:40.839Z,5.35
2023-05-19T10:21:43.139Z,5.20
2023-05-19T10:22:46.336Z,7.30
2023-05-19T10:23:48.482Z,5.95
2023-05-19T10:24:50.720Z,6.97
2023-05-19T10:25:56.358Z,4.40
2023-05-19T10:27:07.579Z,7.75
2023-05-19T10:28:17.236Z,4.95
2023-05-19T10:29:27.337Z,3.70
2023-05-19T10:30:50.962Z,5.50
2023-05-19T10:31:56.146Z,6.50
2023-05-19T10:33:01.775Z,5.15
2023-05-19T10:34:21.888Z,4.57
2023-05-19T10:36:11.815Z,4.18
2023-05-19T10:37:26.998Z,7.07
2023-05-19T10:38:43.045Z,4.60
2023-05-19T10:39:46.354Z,7.18
2023-05-19T10:41:10.362Z,3.90
2023-05-19T10:42:45.428Z,6.78
2023-05-19T10:44:41.015Z,6.55
2023-05-19T10:45:52.895Z,4.93
2023-05-19T10:46:56.819Z,5.25
2023-05-19T10:47:59.401Z,4.93
2023-05-19T10:49:01.662Z,5.53
2023-05-19T10:50:06.624Z,9.90
2023-05-19T10:51:12.181Z,4.70
2023-05-19T10:52:26.979Z,2.55
2023-05-19T10:53:33.366Z,4.30
2023-05-19T10:54:47.283Z,4.95
2023-05-19T10:55:53.378Z,5.57
2023-05-19T10:56:56.793Z,2.33
2023-05-19T10:57:58.941Z,3.80
2023-05-19T10:59:02.450Z,6.55
2023-05-19T11:00:28.090Z,5.30
2023-05-19T11:01:33.369Z,3.22
2023-05-19T11:02:44.030Z,6.93
2023-05-19T11:04:53.609Z,5.13
2023-05-19T11:06:17.543Z,8.63
2023-05-19T11:07:21.718Z,7.15
2023-05-19T11:08:32.830Z,4.18
2023-05-19T11:09:41.116Z,3.55
2023-05-19T11:10:46.673Z,5.50
2023-05-19T11:11:49.962Z,5.45
2023-05-19T11:12:52.480Z,12.98
2023-05-19T11:13:56.076Z,4.07
2023-05-19T11:14:59.473Z,1.42
2023-05-19T11:16:08.343Z,4.32
2023-05-19T11:17:15.746Z,4.60
2023-05-19T11:18:19.411Z,3.20
2023-05-19T11:19:29.684Z,7.53
2023-05-19T11:20:35.147Z,5.60
2023-05-19T11:21:52.542Z,2.40
2023-05-19T11:23:21.782Z,7.18
2023-05-19T11:24:46.344Z,4.10
2023-05-19T11:25:51.389Z,4.28
2023-05-19T11:26:54.783Z,6.05
2023-05-19T11:27:57.967Z,5.13
2023-05-19T11:29:00.461Z,5.85
2023-05-19T11:30:14.840Z,3.05
2023-05-19T11:31:19.146Z,5.32
2023-05-19T11:32:25.749Z,7.97
2023-05-19T11:33:28.276Z,3.40
2023-05-19T11:34:30.910Z,3.33
2023-05-19T11:35:35.436Z,5.82
2023-05-19T11:36:39.976Z,2.97
2023-05-19T11:37:42.785Z,5.53
2023-05-19T11:38:45.404Z,4.30
2023-05-19T11:39:47.960Z,3.55
2023-05-19T11:40:53.259Z,3.22
2023-05-19T11:41:55.910Z,4.88
2023-05-19T11:42:58.688Z,3.15
2023-05-19T11:44:01.016Z,2.40
2023-05-19T11:45:04.549Z,6.50
2023-05-19T11:46:06.754Z,6.22
2023-05-19T11:47:09.600Z,4.38
2023-05-19T11:48:12.975Z,4.40
2023-05-19T11:49:15.715Z,8.57
2023-05-19T11:50:18.539Z,7.25
2023-05-19T11:51:21.755Z,2.97
2023-05-19T11:52:25.625Z,2.42
2023-05-19T11:53:33.255Z,4.68
2023-05-19T11:54:37.340Z,4.43
2023-05-19T11:55:46.208Z,2.38
2023-05-19T11:56:48.626Z,5.22
2023-05-19T11:59:04.290Z,4.22
2023-05-19T12:00:08.108Z,4.20
2023-05-19T12:01:10.358Z,4.93
2023-05-19T12:02:21.171Z,3.25
2023-05-19T12:03:28.161Z,5.30
2023-05-19T12:04:32.046Z,5.28
2023-05-19T12:05:40.865Z,2.78
2023-05-19T12:06:44.430Z,3.67
2023-05-19T12:07:49.580Z,2.55
2023-05-19T12:08:52.723Z,4.88
2023-05-19T12:09:55.635Z,4.20
2023-05-19T12:10:57.892Z,5.47
2023-05-19T12:12:01.016Z,1.75
2023-05-19T12:13:03.542Z,3.58
2023-05-19T12:14:05.944Z,2.67
2023-05-19T12:15:08.900Z,2.15
2023-05-19T12:16:11.566Z,2.70
2023-05-19T12:17:15.273Z,7.15
2023-05-19T12:18:17.462Z,10.63
2023-05-19T12:19:23.814Z,3.13
2023-05-19T12:20:27.539Z,3.80
2023-05-19T12:21:34.275Z,2.25
2023-05-19T12:22:36.944Z,6.00
2023-05-19T12:23:40.014Z,2.65
2023-05-19T12:24:43.600Z,3.13
2023-05-19T12:25:46.163Z,4.88
2023-05-19T12:26:50.285Z,2.33
2023-05-19T12:27:57.506Z,2.75
2023-05-19T12:29:00.285Z,5.72
2023-05-19T12:30:04.464Z,4.45
2023-05-19T12:31:06.738Z,4.25
2023-05-19T12:32:09.634Z,1.40
2023-05-19T12:33:12.620Z,4.85
2023-05-19T12:34:15.750Z,3.75
2023-05-19T12:35:19.882Z,3.35
2023-05-19T12:36:24.008Z,2.47
2023-05-19T12:37:27.598Z,2.80
2023-05-19T12:38:29.827Z,3.92
2023-05-19T12:39:33.706Z,4.68
2023-05-19T12:40:37.551Z,3.10
2023-05-19T12:41:40.750Z,5.10
2023-05-19T12:42:45.482Z,4.65
2023-05-19T12:43:48.676Z,4.65
2023-05-19T12:44:52.561Z,3.33
2023-05-19T12:45:54.801Z,2.88
2023-05-19T12:46:59.426Z,1.92
2023-05-19T12:48:22.657Z,4.72
2023-05-19T12:49:24.920Z,2.22
2023-05-19T12:50:34.162Z,6.20
2023-05-19T12:51:37.037Z,3.80
2023-05-19T12:52:44.439Z,3.33
2023-05-19T12:53:47.367Z,3.35
2023-05-19T12:55:11.429Z,3.92
2023-05-19T12:56:15.349Z,2.25
2023-05-19T12:57:17.654Z,6.28
2023-05-19T12:58:21.507Z,2.83
2023-05-19T12:59:37.451Z,4.55
2023-05-19T13:00:42.667Z,2.80
2023-05-19T13:01:44.982Z,3.25
2023-05-19T13:03:02.128Z,3.33
2023-05-19T13:04:06.263Z,2.67
2023-05-19T13:05:09.110Z,3.95
2023-05-19T13:06:11.810Z,5.82
2023-05-19T13:07:14.036Z,4.05
2023-05-19T13:08:18.627Z,5.15
2023-05-19T13:09:21.191Z,5.35
2023-05-19T13:10:23.879Z,8.60
2023-05-19T13:11:26.030Z,3.13
2023-05-19T13:12:28.251Z,5.15
2023-05-19T13:13:30.578Z,3.67
2023-05-19T13:14:32.781Z,3.70
2023-05-19T13:15:37.967Z,2.90
2023-05-19T13:16:40.245Z,5.50
2023-05-19T13:17:42.860Z,5.65
2023-05-19T13:18:45.066Z,2.83
2023-05-19T13:19:47.388Z,2.30
2023-05-19T13:20:51.324Z,6.03
2023-05-19T13:21:53.560Z,2.97
2023-05-19T13:22:56.998Z,3.10
2023-05-19T13:23:59.188Z,2.60
2023-05-19T13:25:02.280Z,4.57
2023-05-19T13:26:05.469Z,3.25
2023-05-19T13:27:07.950Z,2.67
2023-05-19T13:28:10.962Z,4.78
2023-05-19T13:29:13.161Z,3.38
2023-05-19T13:30:18.743Z,4.93
2023-05-19T13:31:21.050Z,4.28
2023-05-19T13:32:23.981Z,2.30
2023-05-19T13:33:26.399Z,4.22
2023-05-19T13:34:28.579Z,3.08
2023-05-19T13:35:36.732Z,2.13
2023-05-19T13:36:39.315Z,3.22
2023-05-19T13:37:42.565Z,3.20
2023-05-19T13:38:44.823Z,6.10
2023-05-19T13:39:47.054Z,4.50
2023-05-19T13:40:49.244Z,3.17
2023-05-19T13:41:51.640Z,5.35
2023-05-19T13:42:53.873Z,4.25
2023-05-19T13:43:59.648Z,2.55
2023-05-19T13:45:02.993Z,2.28
2023-05-19T13:46:05.825Z,2.58
2023-05-19T13:47:08.103Z,4.00
2023-05-19T13:48:11.960Z,2.45
2023-05-19T13:49:14.483Z,4.78
2023-05-19T13:50:16.716Z,3.28
2023-05-19T13:51:19.081Z,4.43
2023-05-19T13:52:21.706Z,3.45
2023-05-19T13:53:23.986Z,2.75
2023-05-19T13:54:27.590Z,4.63
2023-05-19T13:55:29.878Z,3.92
2023-05-19T13:56:32.153Z,3.30
2023-05-19T13:57:34.320Z,3.10
2023-05-19T13:58:36.571Z,4.38
2023-05-19T13:59:49.074Z,3.17
2023-05-19T14:01:00.124Z,2.25
2023-05-19T14:02:02.863Z,3.72
2023-05-19T14:03:05.230Z,2.50
2023-05-19T14:04:07.598Z,2.08
2023-05-19T14:05:10.105Z,7.13
2023-05-19T14:06:12.471Z,3.83
2023-05-19T14:07:14.709Z,5.10
2023-05-19T14:08:17.300Z,3.38
2023-05-19T14:09:20.044Z,2.78
2023-05-19T14:10:22.339Z,6.40
2023-05-19T14:11:24.637Z,5.90
2023-05-19T14:12:34.779Z,2.72
2023-05-19T14:13:42.608Z,1.98
2023-05-19T14:14:48.501Z,6.20